Time;durP1;ratioP1;P1;durP2;ratioP2;P2;SDS_P1;SDS_P2;PMS_P1;PMS_P2;Temp;Humidity;BMP_temperature;BMP_pressure;BME280_temperature;BME280_humidity;BME280_pressure;Samples;Min_cycle;Max_cycle;Signal;HPM_P1;HPM_P2
2021/01/21 00:00:38;;;;;;;32.37;19.33;;;-0.70;99.90;;;;;;5031544;28;20213;-77
2021/01/21 00:03:04;;;;;;;30.80;19.03;;;-0.70;99.90;;;;;;5036215;28;20765;-77
2021/01/21 00:05:30;;;;;;;29.27;17.30;;;-0.70;99.90;;;;;;5034896;28;20365;-77
2021/01/21 00:07:56;;;;;;;31.73;18.60;;;-0.60;99.90;;;;;;5036347;28;20272;-77
2021/01/21 00:10:22;;;;;;;23.30;15.93;;;-0.60;99.90;;;;;;5034365;28;20260;-77
2021/01/21 00:12:47;;;;;;;24.27;16.23;;;-0.50;99.90;;;;;;5032609;28;20186;-77
2021/01/21 00:15:14;;;;;;;32.17;17.90;;;-0.50;99.90;;;;;;5036365;28;20226;-77
2021/01/21 00:17:40;;;;;;;26.93;16.73;;;-0.60;99.90;;;;;;5036794;28;20182;-77
2021/01/21 00:20:06;;;;;;;30.10;18.03;;;-0.70;99.90;;;;;;5036776;28;20345;-77
2021/01/21 00:22:31;;;;;;;26.67;17.97;;;-0.70;99.90;;;;;;5036442;28;20185;-77
2021/01/21 00:24:57;;;;;;;23.90;16.30;;;-0.70;99.90;;;;;;5036136;28;20202;-77
2021/01/21 00:27:23;;;;;;;26.23;17.23;;;-0.70;99.90;;;;;;5035705;28;20178;-78
2021/01/21 00:29:49;;;;;;;22.17;16.20;;;-0.70;99.90;;;;;;5036266;28;20182;-77
2021/01/21 00:32:15;;;;;;;22.50;16.43;;;-0.60;99.90;;;;;;5036338;28;20240;-77
2021/01/21 00:34:41;;;;;;;42.30;22.20;;;-0.60;99.90;;;;;;5036347;28;20280;-77
2021/01/21 00:37:07;;;;;;;34.77;19.30;;;-0.60;99.90;;;;;;5037126;28;20185;-77
2021/01/21 00:39:33;;;;;;;25.30;16.60;;;-0.60;99.90;;;;;;5036323;28;20552;-77
2021/01/21 00:41:58;;;;;;;33.97;19.13;;;-0.60;99.90;;;;;;5036690;28;20185;-77
2021/01/21 00:44:24;;;;;;;30.83;19.23;;;-0.60;99.90;;;;;;5036678;28;20196;-77
2021/01/21 00:46:50;;;;;;;27.93;18.07;;;-0.70;99.90;;;;;;5036308;28;20641;-77
2021/01/21 00:49:16;;;;;;;26.30;17.10;;;-0.80;99.90;;;;;;5055000;28;20177;-77
2021/01/21 00:51:41;;;;;;;28.23;16.93;;;-0.80;99.90;;;;;;5056265;28;20184;-77
2021/01/21 00:54:07;;;;;;;26.00;18.70;;;-0.80;99.90;;;;;;5055712;28;20672;-78
2021/01/21 00:56:33;;;;;;;24.63;18.10;;;-0.70;99.90;;;;;;5055306;28;20640;-77
2021/01/21 00:59:00;;;;;;;28.90;18.70;;;-0.80;99.90;;;;;;5055259;28;20204;-77
2021/01/21 01:01:26;;;;;;;27.10;17.00;;;-0.90;99.90;;;;;;5054903;28;20185;-77
2021/01/21 01:03:51;;;;;;;28.17;18.23;;;-0.80;99.90;;;;;;5056084;28;20267;-77
2021/01/21 01:06:17;;;;;;;26.73;16.13;;;-0.80;99.90;;;;;;5055830;28;20251;-78
2021/01/21 01:08:43;;;;;;;21.30;15.80;;;-0.80;99.90;;;;;;5056356;28;20238;-78
2021/01/21 01:11:09;;;;;;;25.37;16.53;;;-0.70;99.90;;;;;;5055028;28;20182;-77
2021/01/21 01:13:35;;;;;;;22.83;15.57;;;-0.70;99.90;;;;;;5056628;28;20263;-78
2021/01/21 01:16:01;;;;;;;23.40;15.67;;;-0.70;99.90;;;;;;5055997;28;20282;-77
2021/01/21 01:18:27;;;;;;;22.87;16.33;;;-0.80;99.90;;;;;;5056159;28;20594;-78
2021/01/21 01:20:53;;;;;;;20.90;15.70;;;-0.80;99.90;;;;;;5055837;28;20694;-78
2021/01/21 01:23:19;;;;;;;26.50;16.40;;;-0.90;99.90;;;;;;5055791;28;20180;-78
2021/01/21 01:25:45;;;;;;;22.93;15.70;;;-0.80;99.90;;;;;;5055739;28;20926;-78
2021/01/21 01:28:10;;;;;;;20.00;15.33;;;-0.80;99.90;;;;;;5043716;28;20193;-77
2021/01/21 01:30:36;;;;;;;25.80;16.53;;;-0.90;99.90;;;;;;5036060;28;20215;-77
2021/01/21 01:33:02;;;;;;;19.70;14.57;;;-0.90;99.90;;;;;;5035817;28;20189;-78
2021/01/21 01:35:28;;;;;;;20.33;15.47;;;-1.00;99.90;;;;;;5035527;28;20700;-77
2021/01/21 01:37:54;;;;;;;22.90;15.23;;;-0.90;99.90;;;;;;5035779;28;20193;-78
2021/01/21 01:40:20;;;;;;;20.50;13.67;;;-0.80;99.90;;;;;;5035234;28;20720;-78
2021/01/21 01:42:45;;;;;;;20.00;14.53;;;-0.80;99.90;;;;;;5035516;28;20182;-78
2021/01/21 01:45:12;;;;;;;19.03;14.37;;;-0.80;99.90;;;;;;5034138;28;20203;-77
2021/01/21 01:47:41;;;;;;;22.60;14.90;;;-0.80;99.90;;;;;;5035265;28;20181;-77
2021/01/21 01:50:09;;;;;;;21.00;14.47;;;-0.80;99.90;;;;;;5035357;28;20273;-78
2021/01/21 01:52:41;;;;;;;17.30;14.40;;;-0.80;99.90;;;;;;5035515;28;20184;-78
2021/01/21 01:55:18;;;;;;;16.73;13.80;;;-0.80;99.90;;;;;;5035162;28;20665;-78
2021/01/21 01:57:50;;;;;;;20.03;14.43;;;-0.70;99.90;;;;;;5033226;28;20193;-77
2021/01/21 02:00:17;;;;;;;19.07;15.63;;;-0.70;99.90;;;;;;5026995;28;20200;-78
2021/01/21 02:02:42;;;;;;;18.03;14.60;;;-0.70;99.90;;;;;;5035456;28;20184;-77
2021/01/21 02:05:08;;;;;;;18.37;14.60;;;-0.70;99.90;;;;;;5035607;28;20288;-78
2021/01/21 02:07:34;;;;;;;18.07;14.37;;;-0.70;99.90;;;;;;5035479;28;20200;-78
2021/01/21 02:10:02;;;;;;;20.63;14.73;;;-0.60;99.90;;;;;;5025552;28;20185;-77
2021/01/21 02:12:33;;;;;;;19.17;14.57;;;-0.60;99.90;;;;;;5034852;28;20216;-78
2021/01/21 02:15:05;;;;;;;21.40;14.60;;;-0.60;99.90;;;;;;5034576;28;20248;-78
2021/01/21 02:17:41;;;;;;;23.57;15.93;;;-0.70;99.90;;;;;;5035697;28;20745;-78
2021/01/21 02:20:31;;;;;;;21.53;14.70;;;-0.70;99.90;;;;;;5034197;28;20211;-78
2021/01/21 02:23:54;;;;;;;26.40;17.33;;;-0.70;99.90;;;;;;5034275;28;20560;-78
2021/01/21 02:26:47;;;;;;;27.03;18.23;;;-0.90;99.90;;;;;;5013564;28;20676;-77
2021/01/21 02:29:24;;;;;;;21.63;15.33;;;-1.00;99.90;;;;;;5032583;28;20261;-78
2021/01/21 02:32:06;;;;;;;17.67;14.00;;;-0.90;99.90;;;;;;5035230;28;20708;-78
2021/01/21 02:35:16;;;;;;;21.00;15.23;;;-0.90;99.90;;;;;;5035664;28;20205;-78
2021/01/21 02:38:03;;;;;;;22.23;15.97;;;-0.90;99.90;;;;;;5023064;28;20200;-78
2021/01/21 02:40:29;;;;;;;19.50;15.70;;;-1.00;99.90;;;;;;5034342;28;20271;-78
2021/01/21 02:42:54;;;;;;;25.23;15.77;;;-0.90;99.90;;;;;;5033875;28;20926;-78
2021/01/21 02:45:20;;;;;;;22.90;15.93;;;-0.90;99.90;;;;;;5031751;28;20263;-76
2021/01/21 02:47:46;;;;;;;19.23;14.47;;;-0.80;99.90;;;;;;5030550;28;20523;-77
2021/01/21 02:50:12;;;;;;;18.30;14.03;;;-0.70;99.90;;;;;;5025550;28;20192;-77
2021/01/21 02:52:47;;;;;;;22.57;15.63;;;-0.70;99.90;;;;;;5032629;28;20216;-77
2021/01/21 02:55:35;;;;;;;24.60;16.40;;;-0.70;99.90;;;;;;5033416;28;20251;-78
2021/01/21 02:58:11;;;;;;;30.03;18.50;;;-0.70;99.90;;;;;;5034900;28;20185;-78
2021/01/21 03:00:39;;;;;;;17.27;14.33;;;-0.80;99.90;;;;;;5033896;28;20721;-78
2021/01/21 03:03:12;;;;;;;21.77;15.67;;;-0.90;99.90;;;;;;5032812;28;20257;-77
2021/01/21 03:05:37;;;;;;;23.90;15.73;;;-0.80;99.90;;;;;;5034036;28;20256;-78
2021/01/21 03:08:06;;;;;;;20.27;15.07;;;-0.80;99.90;;;;;;5034049;28;20573;-78
2021/01/21 03:10:32;;;;;;;21.47;15.43;;;-0.80;99.90;;;;;;5033023;28;20276;-78
2021/01/21 03:12:58;;;;;;;20.57;15.47;;;-0.80;99.90;;;;;;5033140;28;20202;-78
2021/01/21 03:15:25;;;;;;;21.17;15.47;;;-0.80;99.90;;;;;;5033080;28;20229;-78
2021/01/21 03:17:52;;;;;;;21.40;14.40;;;-0.80;99.90;;;;;;5035114;28;20192;-77
2021/01/21 03:20:18;;;;;;;18.30;14.30;;;-0.80;99.90;;;;;;5045415;28;20272;-78
2021/01/21 03:22:44;;;;;;;19.00;13.73;;;-0.80;99.90;;;;;;5045374;28;20181;-78
2021/01/21 03:25:11;;;;;;;20.73;15.27;;;-0.80;99.90;;;;;;5046461;28;20212;-78
2021/01/21 03:27:37;;;;;;;15.47;13.47;;;-0.70;99.90;;;;;;5046837;28;20551;-78
2021/01/21 03:30:07;;;;;;;16.77;13.63;;;-0.70;99.90;;;;;;5041121;28;20253;-78
2021/01/21 03:32:35;;;;;;;22.00;13.73;;;-0.60;99.90;;;;;;5033800;28;20200;-78
2021/01/21 03:35:04;;;;;;;20.20;14.90;;;-0.60;99.90;;;;;;5033862;28;20208;-78
2021/01/21 03:37:29;;;;;;;20.53;14.47;;;-0.50;99.90;;;;;;5033448;28;20588;-78
2021/01/21 03:39:55;;;;;;;20.83;14.50;;;-0.50;99.90;;;;;;5033175;28;20197;-77
2021/01/21 03:42:21;;;;;;;23.47;15.23;;;-0.50;99.90;;;;;;5032661;28;20210;-77
2021/01/21 03:44:47;;;;;;;27.53;15.83;;;-0.50;99.90;;;;;;5032628;28;20229;-77
2021/01/21 03:47:12;;;;;;;22.13;15.33;;;-0.40;99.90;;;;;;5032610;28;20177;-78
2021/01/21 03:49:39;;;;;;;33.67;22.37;;;-0.50;99.90;;;;;;5032869;28;20197;-78
2021/01/21 03:52:04;;;;;;;19.60;14.37;;;-0.50;99.90;;;;;;5032694;28;20186;-78
2021/01/21 03:54:30;;;;;;;18.97;13.60;;;-0.50;99.90;;;;;;5032669;28;20340;-78
2021/01/21 03:56:56;;;;;;;19.90;14.17;;;-0.50;99.90;;;;;;5032760;28;20193;-77
2021/01/21 03:59:22;;;;;;;26.87;15.43;;;-0.50;99.90;;;;;;5032277;28;20208;-78
2021/01/21 04:01:47;;;;;;;15.77;13.53;;;-0.40;99.90;;;;;;5052732;28;20231;-78
2021/01/21 04:04:13;;;;;;;14.10;12.00;;;-0.40;99.90;;;;;;5056142;28;20185;-77
2021/01/21 04:06:39;;;;;;;16.27;13.40;;;-0.40;99.90;;;;;;5056566;28;20173;-77
2021/01/21 04:09:05;;;;;;;18.47;14.07;;;-0.30;99.90;;;;;;5025452;28;20282;-78
2021/01/21 04:11:32;;;;;;;15.43;13.33;;;-0.40;99.90;;;;;;5055854;28;20206;-77
2021/01/21 04:13:58;;;;;;;17.83;13.43;;;-0.30;99.90;;;;;;5056498;28;20189;-78
2021/01/21 04:16:24;;;;;;;17.37;12.80;;;-0.30;99.90;;;;;;5056239;28;20993;-78
2021/01/21 04:18:50;;;;;;;16.90;12.13;;;-0.30;99.90;;;;;;5056445;28;20211;-78
2021/01/21 04:21:16;;;;;;;16.53;11.50;;;-0.30;99.90;;;;;;5055927;28;20256;-77
2021/01/21 04:23:41;;;;;;;14.20;11.37;;;-0.30;99.90;;;;;;5056510;28;20215;-78
2021/01/21 04:26:07;;;;;;;17.43;12.53;;;-0.30;99.90;;;;;;5057036;28;20244;-77
2021/01/21 04:28:32;;;;;;;14.93;11.57;;;-0.40;99.90;;;;;;5041033;28;20276;-78
2021/01/21 04:30:58;;;;;;;17.07;12.80;;;-0.30;99.90;;;;;;5036614;28;20181;-77
2021/01/21 04:33:24;;;;;;;14.63;11.60;;;-0.30;99.90;;;;;;5036779;28;20252;-78
2021/01/21 04:35:51;;;;;;;15.63;11.23;;;-0.30;99.90;;;;;;5036976;28;20209;-78
2021/01/21 04:38:17;;;;;;;17.37;12.80;;;-0.30;99.90;;;;;;5036741;28;20189;-78
2021/01/21 04:40:44;;;;;;;15.40;11.47;;;-0.30;99.90;;;;;;5035351;28;20206;-77
2021/01/21 04:43:10;;;;;;;14.77;12.17;;;-0.20;99.90;;;;;;5037124;28;20189;-78
2021/01/21 04:45:36;;;;;;;16.83;11.30;;;-0.20;99.90;;;;;;5036451;28;20213;-78
2021/01/21 04:48:03;;;;;;;29.57;20.20;;;-0.20;99.90;;;;;;5037039;28;20265;-78
2021/01/21 04:50:30;;;;;;;25.63;17.57;;;-0.30;99.90;;;;;;5035366;28;20186;-77
2021/01/21 04:52:57;;;;;;;16.13;12.77;;;-0.40;99.90;;;;;;5036695;28;20189;-78
2021/01/21 04:55:38;;;;;;;15.60;12.97;;;-0.40;99.90;;;;;;5036847;28;20201;-77
2021/01/21 04:58:07;;;;;;;18.57;13.57;;;-0.40;99.90;;;;;;5036678;28;20196;-78
2021/01/21 05:00:33;;;;;;;16.63;12.30;;;-0.40;99.90;;;;;;5034428;28;20205;-78
2021/01/21 05:03:01;;;;;;;14.57;12.60;;;-0.40;99.90;;;;;;5033246;28;20189;-77
2021/01/21 05:05:28;;;;;;;17.57;13.90;;;-0.40;99.90;;;;;;5035711;28;20852;-77
2021/01/21 05:07:54;;;;;;;16.20;13.80;;;-0.30;99.90;;;;;;5051515;28;20711;-77
2021/01/21 05:10:21;;;;;;;16.67;13.80;;;-0.30;99.90;;;;;;5054485;28;20786;-78
2021/01/21 05:12:47;;;;;;;15.20;13.13;;;-0.30;99.90;;;;;;5056498;28;20559;-78
2021/01/21 05:15:13;;;;;;;17.37;14.20;;;-0.30;99.90;;;;;;5054868;28;20232;-78
2021/01/21 05:17:39;;;;;;;14.93;12.50;;;-0.20;99.90;;;;;;5055855;28;20245;-77
2021/01/21 05:20:06;;;;;;;19.13;13.70;;;-0.30;99.90;;;;;;5055087;28;20209;-77
2021/01/21 05:22:35;;;;;;;18.83;13.87;;;-0.30;99.90;;;;;;5055541;28;20255;-77
2021/01/21 05:25:01;;;;;;;18.67;13.57;;;-0.30;99.90;;;;;;5056023;28;20205;-78
2021/01/21 05:27:27;;;;;;;16.90;14.00;;;-0.30;99.90;;;;;;5051039;28;20241;-78
2021/01/21 05:29:53;;;;;;;15.90;12.77;;;-0.30;99.90;;;;;;5036842;28;20187;-78
2021/01/21 05:32:20;;;;;;;17.53;12.80;;;-0.30;99.90;;;;;;5034992;28;20194;-78
2021/01/21 05:34:47;;;;;;;16.77;13.20;;;-0.30;99.90;;;;;;5036150;28;20304;-78
2021/01/21 05:37:14;;;;;;;21.60;14.13;;;-0.30;99.90;;;;;;5035326;28;20186;-77
2021/01/21 05:39:44;;;;;;;19.83;14.97;;;-0.20;99.90;;;;;;5035988;28;20205;-78
2021/01/21 05:42:11;;;;;;;18.57;14.60;;;-0.30;99.90;;;;;;5036570;28;20178;-78
2021/01/21 05:44:37;;;;;;;18.43;13.50;;;-0.30;99.90;;;;;;5036526;28;20201;-77
2021/01/21 05:47:06;;;;;;;20.37;15.03;;;-0.20;99.90;;;;;;5036116;28;20173;-77
2021/01/21 05:49:32;;;;;;;19.47;13.93;;;-0.20;99.90;;;;;;5035101;28;20185;-77
2021/01/21 05:51:59;;;;;;;26.67;17.63;;;-0.20;99.90;;;;;;5035081;28;20551;-77
2021/01/21 05:54:27;;;;;;;26.10;19.17;;;-0.10;99.90;;;;;;5036107;28;20182;-77
2021/01/21 05:57:01;;;;;;;21.00;14.87;;;-0.10;99.90;;;;;;5035068;28;20268;-78
2021/01/21 05:59:29;;;;;;;21.50;15.90;;;0.00;99.90;;;;;;5035458;28;20212;-78
2021/01/21 06:01:56;;;;;;;20.33;14.27;;;-0.10;99.90;;;;;;5035949;28;20285;-77
2021/01/21 06:04:25;;;;;;;19.03;13.50;;;-0.10;99.90;;;;;;5036600;28;20188;-77
2021/01/21 06:06:52;;;;;;;18.07;12.77;;;-0.10;99.90;;;;;;5036476;28;20177;-78
2021/01/21 06:09:26;;;;;;;18.00;13.87;;;-0.10;99.90;;;;;;5036888;28;20184;-78
2021/01/21 06:11:52;;;;;;;18.57;14.13;;;-0.10;99.90;;;;;;5032464;28;20185;-77
2021/01/21 06:14:23;;;;;;;16.90;12.67;;;-0.10;99.90;;;;;;5033867;28;20265;-77
2021/01/21 06:16:50;;;;;;;18.23;13.90;;;-0.10;99.90;;;;;;5034500;28;20220;-77
2021/01/21 06:19:15;;;;;;;15.47;12.73;;;-0.10;99.90;;;;;;5028342;28;20573;-77
2021/01/21 06:21:47;;;;;;;21.73;14.67;;;0.00;99.90;;;;;;5035206;28;20265;-77
2021/01/21 06:24:16;;;;;;;17.43;13.83;;;0.00;99.90;;;;;;5035104;28;20265;-77
2021/01/21 06:26:45;;;;;;;19.30;13.63;;;0.00;99.90;;;;;;5034559;28;20166;-77
2021/01/21 06:29:15;;;;;;;22.70;14.37;;;0.00;99.90;;;;;;5035590;28;20181;-77
2021/01/21 06:31:42;;;;;;;19.60;13.53;;;0.00;99.90;;;;;;5035248;28;20521;-78
2021/01/21 06:34:17;;;;;;;18.57;14.33;;;0.00;99.90;;;;;;5035074;28;20188;-77
2021/01/21 06:36:48;;;;;;;17.93;13.73;;;0.00;99.90;;;;;;5035007;28;20170;-77
2021/01/21 06:39:25;;;;;;;16.50;13.07;;;0.00;99.90;;;;;;5034599;28;20185;-77
2021/01/21 06:41:56;;;;;;;17.17;14.10;;;0.00;99.90;;;;;;5034978;28;20184;-77
2021/01/21 06:44:22;;;;;;;20.27;14.70;;;0.00;99.90;;;;;;5034702;28;20175;-78
2021/01/21 06:46:49;;;;;;;15.40;13.60;;;0.00;99.90;;;;;;5034779;28;20671;-77
2021/01/21 06:49:16;;;;;;;16.17;12.93;;;0.10;99.90;;;;;;5033820;28;20185;-77
2021/01/21 06:51:50;;;;;;;23.80;15.17;;;0.10;99.90;;;;;;5035354;28;20173;-77
2021/01/21 06:54:16;;;;;;;18.50;13.07;;;0.10;99.90;;;;;;5035130;28;20170;-78
2021/01/21 06:56:43;;;;;;;18.07;14.13;;;0.20;99.90;;;;;;5034481;28;20754;-78
2021/01/21 06:59:09;;;;;;;19.43;14.20;;;0.20;99.90;;;;;;5033558;28;20185;-78
2021/01/21 07:01:38;;;;;;;15.67;13.53;;;0.20;99.90;;;;;;5034502;28;20201;-78
2021/01/21 07:04:03;;;;;;;16.27;13.00;;;0.30;99.90;;;;;;5034763;28;20249;-78
2021/01/21 07:06:58;;;;;;;19.77;14.33;;;0.30;99.90;;;;;;5036317;28;20253;-78
2021/01/21 07:09:28;;;;;;;16.60;13.93;;;0.30;99.90;;;;;;5034560;28;20186;-77
2021/01/21 07:11:56;;;;;;;17.43;13.87;;;0.30;99.90;;;;;;5029456;28;20661;-77
2021/01/21 07:14:24;;;;;;;21.77;14.83;;;0.20;99.90;;;;;;5034597;28;20233;-77
2021/01/21 07:16:56;;;;;;;18.33;13.80;;;0.20;99.90;;;;;;5034691;28;20232;-77
2021/01/21 07:19:49;;;;;;;20.27;14.37;;;0.30;99.90;;;;;;5034342;28;20205;-77
2021/01/21 07:22:20;;;;;;;19.67;13.97;;;0.20;99.90;;;;;;5027667;28;20182;-78
2021/01/21 07:24:50;;;;;;;19.37;14.53;;;0.20;99.90;;;;;;5035026;28;20198;-77
2021/01/21 07:27:18;;;;;;;23.17;16.47;;;0.20;99.90;;;;;;5034912;28;20186;-77
2021/01/21 07:29:44;;;;;;;21.97;14.90;;;0.20;99.90;;;;;;5033988;28;20556;-77
2021/01/21 07:32:10;;;;;;;18.10;14.20;;;0.30;99.90;;;;;;5035912;28;20190;-78
2021/01/21 07:34:39;;;;;;;18.87;14.50;;;0.20;99.90;;;;;;5036464;28;20212;-77
2021/01/21 07:37:24;;;;;;;24.23;15.13;;;0.20;99.90;;;;;;5038313;28;20189;-78
2021/01/21 07:39:53;;;;;;;22.97;15.67;;;0.20;99.90;;;;;;5040416;28;20300;-77
2021/01/21 07:42:21;;;;;;;19.53;15.03;;;0.20;99.90;;;;;;5038814;28;20657;-78
2021/01/21 07:45:01;;;;;;;23.60;15.10;;;0.20;99.90;;;;;;5038980;28;20281;-78
2021/01/21 07:47:33;;;;;;;23.30;16.27;;;0.20;99.90;;;;;;5039007;28;20181;-78
2021/01/21 07:50:35;;;;;;;20.20;15.73;;;0.20;99.90;;;;;;5039261;28;20707;-78
2021/01/21 07:53:05;;;;;;;18.70;14.97;;;0.30;99.90;;;;;;5034842;28;20193;-78
2021/01/21 07:55:32;;;;;;;20.57;15.90;;;0.20;99.90;;;;;;5037207;28;20210;-78
2021/01/21 07:58:15;;;;;;;24.20;17.00;;;0.30;99.90;;;;;;5038529;28;20189;-77
2021/01/21 08:00:41;;;;;;;21.17;15.73;;;0.20;99.90;;;;;;5038048;28;20206;-77
2021/01/21 08:03:07;;;;;;;22.47;16.53;;;0.30;99.90;;;;;;5035770;28;20175;-77
2021/01/21 08:05:33;;;;;;;67.17;29.13;;;0.30;99.90;;;;;;5036023;28;20294;-78
2021/01/21 08:08:00;;;;;;;39.97;22.40;;;0.30;99.90;;;;;;5038476;28;20182;-77
2021/01/21 08:10:35;;;;;;;26.00;17.50;;;0.30;99.90;;;;;;5042353;28;20598;-78
2021/01/21 08:13:03;;;;;;;29.30;17.73;;;0.40;99.90;;;;;;5033870;28;20211;-78
2021/01/21 08:15:30;;;;;;;25.43;18.37;;;0.60;99.90;;;;;;5034346;28;20220;-78
2021/01/21 08:17:56;;;;;;;24.90;19.10;;;0.60;99.90;;;;;;5036936;28;20649;-78
2021/01/21 08:20:24;;;;;;;26.07;17.17;;;0.70;99.90;;;;;;5037384;28;20239;-78
2021/01/21 08:22:55;;;;;;;21.57;16.50;;;0.70;99.90;;;;;;5037727;28;20182;-78
2021/01/21 08:25:22;;;;;;;23.77;17.30;;;0.80;99.90;;;;;;5038102;28;20210;-78
2021/01/21 08:27:50;;;;;;;19.83;16.30;;;0.80;99.90;;;;;;5038844;28;20188;-78
2021/01/21 08:30:24;;;;;;;20.73;15.50;;;0.80;99.90;;;;;;5038449;28;20174;-77
2021/01/21 08:32:58;;;;;;;24.33;16.83;;;0.90;99.90;;;;;;5035904;28;20277;-78
2021/01/21 08:35:27;;;;;;;23.80;16.50;;;0.90;99.90;;;;;;5034744;28;20225;-77
2021/01/21 08:37:55;;;;;;;17.77;15.67;;;0.90;99.90;;;;;;5035679;28;20174;-77
2021/01/21 08:40:22;;;;;;;19.97;15.93;;;0.90;99.90;;;;;;5036119;28;20194;-77
2021/01/21 08:42:50;;;;;;;20.50;16.20;;;1.00;99.90;;;;;;5036335;28;20170;-77
2021/01/21 08:45:20;;;;;;;22.90;16.50;;;1.00;99.90;;;;;;5036117;28;20207;-78
2021/01/21 08:47:50;;;;;;;21.83;16.43;;;1.10;99.90;;;;;;5034978;28;20236;-77
2021/01/21 08:50:19;;;;;;;23.50;17.83;;;1.10;99.90;;;;;;5036576;28;20183;-79
2021/01/21 08:53:07;;;;;;;27.93;18.67;;;1.20;99.90;;;;;;5037685;28;20186;-78
2021/01/21 08:55:47;;;;;;;25.73;17.57;;;1.20;99.90;;;;;;5037994;28;20200;-76
2021/01/21 08:58:14;;;;;;;29.70;18.97;;;1.20;99.90;;;;;;5032233;28;20186;-77
2021/01/21 09:01:00;;;;;;;22.17;16.67;;;1.30;99.90;;;;;;5033370;28;20212;-76
2021/01/21 09:03:51;;;;;;;26.27;17.40;;;1.30;99.90;;;;;;5035102;28;20269;-76
2021/01/21 09:06:19;;;;;;;21.83;16.93;;;1.30;99.90;;;;;;5030854;28;20210;-76
2021/01/21 09:08:50;;;;;;;25.33;16.87;;;1.40;99.90;;;;;;5034375;28;20171;-76
2021/01/21 09:11:37;;;;;;;26.83;17.93;;;1.40;99.90;;;;;;5034742;28;20205;-76
2021/01/21 09:14:03;;;;;;;28.40;18.63;;;1.40;99.90;;;;;;5034470;28;20312;-76
2021/01/21 09:16:44;;;;;;;28.70;19.50;;;1.50;99.90;;;;;;5033991;28;20221;-76
2021/01/21 09:19:14;;;;;;;26.43;17.70;;;1.60;99.90;;;;;;5034182;28;20555;-76
2021/01/21 09:22:01;;;;;;;27.73;18.20;;;1.60;99.90;;;;;;5034397;28;20166;-76
2021/01/21 09:24:27;;;;;;;27.43;18.30;;;1.70;99.90;;;;;;5032621;28;20174;-76
2021/01/21 09:27:09;;;;;;;26.93;18.40;;;1.70;99.90;;;;;;5032650;28;20584;-76
2021/01/21 09:29:51;;;;;;;22.90;15.87;;;1.80;99.90;;;;;;5033907;28;20178;-76
2021/01/21 09:32:23;;;;;;;28.53;19.57;;;1.90;99.90;;;;;;5033867;28;20186;-76
2021/01/21 09:35:04;;;;;;;27.33;17.63;;;2.00;99.90;;;;;;5033967;28;20206;-76
2021/01/21 09:37:37;;;;;;;21.90;16.67;;;2.10;99.90;;;;;;5033713;28;20186;-76
2021/01/21 09:40:11;;;;;;;20.23;13.97;;;2.10;99.90;;;;;;5033346;28;20227;-77
2021/01/21 09:42:37;;;;;;;15.27;12.33;;;2.20;99.90;;;;;;5033850;28;20194;-76
2021/01/21 09:45:05;;;;;;;14.23;11.50;;;2.40;99.90;;;;;;5033485;28;20751;-76
2021/01/21 09:47:30;;;;;;;12.83;11.50;;;2.60;99.90;;;;;;5032229;28;20182;-75
2021/01/21 09:49:56;;;;;;;12.57;11.23;;;2.70;99.90;;;;;;5033484;28;20178;-76
2021/01/21 09:52:21;;;;;;;12.73;10.50;;;2.70;99.90;;;;;;5033362;28;20563;-76
2021/01/21 09:54:47;;;;;;;16.57;10.53;;;2.70;99.90;;;;;;5033394;28;20190;-76
2021/01/21 09:57:13;;;;;;;14.67;11.23;;;2.80;99.90;;;;;;5033396;28;20653;-76
2021/01/21 09:59:39;;;;;;;13.00;10.40;;;3.40;99.90;;;;;;5033168;28;20277;-76
2021/01/21 10:02:05;;;;;;;13.83;10.80;;;2.90;99.90;;;;;;5033168;28;20182;-75
2021/01/21 10:04:32;;;;;;;27.23;13.97;;;3.00;99.90;;;;;;5033420;28;20213;-76
2021/01/21 10:06:58;;;;;;;21.77;14.93;;;3.00;99.90;;;;;;5033249;28;20202;-75
2021/01/21 10:09:24;;;;;;;20.90;13.57;;;3.10;99.90;;;;;;5033029;28;20276;-75
2021/01/21 10:11:50;;;;;;;24.13;15.67;;;3.10;99.90;;;;;;5032920;28;20748;-74
2021/01/21 10:14:15;;;;;;;15.13;12.13;;;3.10;99.90;;;;;;5033545;28;20183;-75
2021/01/21 10:16:41;;;;;;;13.63;11.23;;;3.10;99.90;;;;;;5033029;28;20576;-75
2021/01/21 10:19:09;;;;;;;15.80;11.83;;;3.10;99.90;;;;;;5032847;28;20170;-75
2021/01/21 10:21:35;;;;;;;14.07;12.13;;;3.20;99.90;;;;;;5021888;28;20245;-75
2021/01/21 10:24:00;;;;;;;13.57;12.17;;;3.20;99.90;;;;;;5031804;28;20213;-75
2021/01/21 10:26:26;;;;;;;17.83;12.73;;;3.20;99.90;;;;;;5031578;28;20618;-75
2021/01/21 10:28:52;;;;;;;21.30;15.50;;;3.20;99.90;;;;;;5031540;28;20548;-75
2021/01/21 10:31:17;;;;;;;23.87;15.83;;;3.20;99.90;;;;;;5033709;28;20714;-75
2021/01/21 10:33:43;;;;;;;20.43;15.20;;;3.20;99.90;;;;;;5033154;28;20175;-75
2021/01/21 10:36:10;;;;;;;20.30;14.17;;;3.30;99.90;;;;;;5032789;28;20205;-75
2021/01/21 10:38:38;;;;;;;21.00;14.37;;;3.20;99.90;;;;;;5031344;28;20174;-75
2021/01/21 10:41:04;;;;;;;19.37;14.37;;;3.20;99.90;;;;;;5032315;28;20201;-75
2021/01/21 10:43:30;;;;;;;23.30;14.60;;;3.30;99.90;;;;;;5032510;28;20213;-75
2021/01/21 10:45:55;;;;;;;25.00;14.47;;;3.30;99.90;;;;;;5032442;28;20222;-75
2021/01/21 10:48:21;;;;;;;10.83;8.80;;;3.30;99.90;;;;;;5030821;28;20174;-75
2021/01/21 10:50:47;;;;;;;11.00;9.17;;;3.30;99.90;;;;;;5032428;28;20657;-75
2021/01/21 10:53:12;;;;;;;6.13;5.50;;;3.60;99.90;;;;;;5032255;28;20183;-75
2021/01/21 10:55:39;;;;;;;5.60;5.10;;;3.90;99.90;;;;;;5032602;28;20201;-75
2021/01/21 10:58:06;;;;;;;8.00;4.53;;;4.60;99.90;;;;;;5031199;28;20684;-76
2021/01/21 11:00:32;;;;;;;4.63;4.13;;;4.80;99.90;;;;;;5031063;28;20287;-76
2021/01/21 11:02:59;;;;;;;3.87;3.47;;;;;;;;;;5030796;28;20178;-76
2021/01/21 11:05:25;;;;;;;3.33;3.00;;;;;;;;;;5031504;28;20248;-76
2021/01/21 11:07:51;;;;;;;3.97;2.60;;;;;;;;;;5032150;28;20673;-76
2021/01/21 11:10:17;;;;;;;3.10;2.67;;;;;;;;;;5032358;28;20256;-76
2021/01/21 11:12:46;;;;;;;3.23;2.93;;;;;;;;;;5031141;28;20210;-75
2021/01/21 11:15:12;;;;;;;2.83;2.50;;;;;;;;;;5032153;28;20205;-75
2021/01/21 11:17:38;;;;;;;2.40;2.20;;;;;;;;;;5032612;28;20602;-76
2021/01/21 11:20:05;;;;;;;3.13;2.73;;;;;;;;;;5031042;28;20194;-76
2021/01/21 11:22:31;;;;;;;4.10;3.30;;;;;;;;;;5032211;28;20586;-76
2021/01/21 11:24:57;;;;;;;2.70;2.50;;;;;;;;;;5032053;28;20639;-76
2021/01/21 11:27:24;;;;;;;3.83;2.60;;;;;;;;;;5031998;28;20172;-76
2021/01/21 11:29:50;;;;;;;3.73;2.60;;;;;;;;;;5032274;28;20184;-76
2021/01/21 11:32:16;;;;;;;2.80;2.40;;;;;;;;;;5032083;28;20190;-76
2021/01/21 11:34:42;;;;;;;2.97;2.40;;;;;;;;;;5030672;28;20214;-75
2021/01/21 11:37:08;;;;;;;2.43;2.07;;;;;;;;;;5032071;28;20564;-75
2021/01/21 11:39:34;;;;;;;3.87;2.13;;;;;;;;;;5031947;28;20685;-75
2021/01/21 11:42:00;;;;;;;5.87;2.93;;;;;;;;;;5031817;28;20215;-76
2021/01/21 11:44:26;;;;;;;2.83;2.40;;;;;;;;;;5030606;28;20256;-75
2021/01/21 11:46:53;;;;;;;3.07;2.60;;;;;;;;;;5032215;28;20305;-76
2021/01/21 11:49:19;;;;;;;3.83;2.90;;;;;;;;;;5030569;28;20706;-74
2021/01/21 11:51:45;;;;;;;7.60;3.80;;;;;;;;;;5031822;28;20183;-76
2021/01/21 11:54:11;;;;;;;8.83;5.20;;;;;;;;;;5031734;28;20194;-75
2021/01/21 11:56:37;;;;;;;9.83;3.77;;;;;;;;;;5032167;28;20179;-76
2021/01/21 11:59:04;;;;;;;8.83;4.43;;;;;;;;;;5031755;28;20205;-75
2021/01/21 12:01:30;;;;;;;7.67;3.13;;;;;;;;;;5029758;28;20231;-74
2021/01/21 12:03:57;;;;;;;4.20;2.93;;;;;;;;;;5031016;28;20197;-76
2021/01/21 12:06:23;;;;;;;4.97;3.17;;;;;;;;;;5030288;28;20230;-76
2021/01/21 12:08:49;;;;;;;2.43;2.23;;;;;;;;;;5032025;28;20552;-75
2021/01/21 12:11:16;;;;;;;2.20;2.00;;;;;;;;;;5031641;28;20219;-75
2021/01/21 12:13:42;;;;;;;2.80;2.23;;;;;;;;;;5022216;28;20188;-76
2021/01/21 12:16:08;;;;;;;5.97;2.23;;;;;;;;;;5029767;28;20223;-76
2021/01/21 12:18:34;;;;;;;2.93;1.80;;;;;;;;;;5030602;28;20572;-75
2021/01/21 12:21:00;;;;;;;1.97;1.30;;;;;;;;;;5031679;28;20255;-75
2021/01/21 12:23:26;;;;;;;2.23;1.30;;;;;;;;;;5031610;28;20180;-75
2021/01/21 12:25:53;;;;;;;1.33;1.17;;;;;;;;;;5034793;28;20194;-76
2021/01/21 12:28:19;;;;;;;1.17;0.97;;;;;;;;;;5035395;28;20203;-75
2021/01/21 12:30:45;;;;;;;3.30;1.17;;;;;;;;;;5034758;28;20197;-75
2021/01/21 12:33:11;;;;;;;1.37;1.20;;;;;;;;;;5033693;28;20186;-75
2021/01/21 12:35:38;;;;;;;2.03;1.70;;;;;;;;;;5034913;28;20255;-76
2021/01/21 12:38:04;;;;;;;2.63;1.60;;;;;;;;;;5034890;28;20556;-77
2021/01/21 12:40:30;;;;;;;3.90;1.60;;;;;;;;;;5033589;28;20195;-76
2021/01/21 12:42:56;;;;;;;1.60;1.47;;;;;;;;;;5035675;28;20202;-75
2021/01/21 12:45:23;;;;;;;1.33;1.23;;;;;;;;;;5034725;28;20198;-75
2021/01/21 12:47:49;;;;;;;2.53;1.10;;;;;;;;;;5034242;28;20176;-75
2021/01/21 12:50:15;;;;;;;1.30;1.10;;;;;;;;;;5032483;28;20205;-77
2021/01/21 12:52:41;;;;;;;1.27;1.17;;;;;;;;;;5034566;28;20673;-76
2021/01/21 12:55:10;;;;;;;0.93;0.87;;;;;;;;;;5034845;28;20199;-76